createdAt,value
2022-12-31T00:01:44.913Z,21.74
2022-12-31T00:04:11.446Z,21.74
2022-12-31T00:06:38.040Z,21.75
2022-12-31T00:09:07.078Z,21.73
2022-12-31T00:11:34.845Z,21.73
2022-12-31T00:14:01.527Z,21.73
2022-12-31T00:16:31.295Z,21.71
2022-12-31T00:18:59.906Z,21.72
2022-12-31T00:21:28.806Z,21.71
2022-12-31T00:23:55.695Z,21.71
2022-12-31T00:26:27.275Z,21.70
2022-12-31T00:28:55.375Z,21.68
2022-12-31T00:31:24.767Z,21.68
2022-12-31T00:33:51.969Z,21.68
2022-12-31T00:36:27.248Z,21.66
2022-12-31T00:38:55.532Z,21.67
2022-12-31T00:41:23.394Z,21.66
2022-12-31T00:43:50.873Z,21.65
2022-12-31T00:46:17.902Z,21.65
2022-12-31T00:48:44.539Z,21.65
2022-12-31T00:51:13.624Z,21.64
2022-12-31T00:53:40.436Z,21.63
2022-12-31T00:56:11.527Z,21.63
2022-12-31T00:58:38.613Z,21.62
2022-12-31T01:01:14.600Z,21.61
2022-12-31T01:03:41.209Z,21.60
2022-12-31T01:06:08.191Z,21.61
2022-12-31T01:08:35.216Z,21.59
2022-12-31T01:11:21.186Z,21.60
2022-12-31T01:13:49.752Z,21.58
2022-12-31T01:16:17.668Z,21.57
2022-12-31T01:18:44.234Z,21.56
2022-12-31T01:21:12.558Z,21.58
2022-12-31T01:23:39.221Z,21.56
2022-12-31T01:26:07.909Z,21.55
2022-12-31T01:28:35.043Z,21.56
2022-12-31T01:31:10.185Z,21.55
2022-12-31T01:33:37.303Z,21.54
2022-12-31T01:36:07.035Z,21.54
2022-12-31T01:38:34.669Z,21.54
2022-12-31T01:41:01.378Z,21.52
2022-12-31T01:43:50.484Z,21.52
2022-12-31T01:46:43.701Z,21.51
2022-12-31T01:49:58.175Z,21.51
2022-12-31T01:52:32.645Z,21.51
2022-12-31T01:55:17.920Z,21.50
2022-12-31T01:57:47.133Z,21.50
2022-12-31T02:00:14.702Z,21.50
2022-12-31T02:02:41.429Z,21.49
2022-12-31T02:05:26.160Z,21.49
2022-12-31T02:07:54.477Z,21.49
2022-12-31T02:10:21.213Z,21.49
2022-12-31T02:12:48.199Z,21.48
2022-12-31T02:15:15.061Z,21.48
2022-12-31T02:18:00.225Z,21.46
2022-12-31T02:20:58.125Z,21.47
2022-12-31T02:23:58.906Z,21.45
2022-12-31T02:26:28.033Z,21.44
2022-12-31T02:29:12.148Z,21.44
2022-12-31T02:31:56.302Z,21.44
2022-12-31T02:34:25.554Z,21.44
2022-12-31T02:36:55.119Z,21.42
2022-12-31T02:39:22.249Z,21.42
2022-12-31T02:41:50.112Z,21.40
2022-12-31T02:44:29.939Z,21.40
2022-12-31T02:47:05.257Z,21.41
2022-12-31T02:49:40.831Z,21.40
2022-12-31T02:52:13.321Z,21.41
2022-12-31T02:55:01.667Z,21.38
2022-12-31T02:57:39.150Z,21.39
2022-12-31T03:00:31.958Z,21.39
2022-12-31T03:03:00.377Z,21.39
2022-12-31T03:05:36.711Z,21.38
2022-12-31T03:08:03.476Z,21.37
2022-12-31T03:10:30.131Z,21.37
2022-12-31T03:12:56.708Z,21.37
2022-12-31T03:15:26.609Z,21.34
2022-12-31T03:17:58.082Z,21.35
2022-12-31T03:20:50.662Z,21.34
2022-12-31T03:23:25.925Z,21.36
2022-12-31T03:25:53.463Z,21.33
2022-12-31T03:28:23.012Z,21.34
2022-12-31T03:30:52.951Z,21.33
2022-12-31T03:33:20.500Z,21.32
2022-12-31T03:35:47.990Z,21.31
2022-12-31T03:38:15.472Z,21.32
2022-12-31T03:40:44.620Z,21.32
2022-12-31T03:43:11.584Z,21.31
2022-12-31T03:45:38.588Z,21.30
2022-12-31T03:48:07.109Z,21.31
2022-12-31T03:50:33.739Z,21.28
2022-12-31T03:53:00.557Z,21.30
2022-12-31T03:55:27.200Z,21.29
2022-12-31T03:57:53.697Z,21.29
2022-12-31T04:00:21.931Z,21.28
2022-12-31T04:02:49.536Z,21.27
2022-12-31T04:05:17.306Z,21.26
2022-12-31T04:07:44.158Z,21.27
2022-12-31T04:10:13.806Z,21.27
2022-12-31T04:12:40.697Z,21.26
2022-12-31T04:15:08.294Z,21.26
2022-12-31T04:17:34.783Z,21.25
2022-12-31T04:20:01.281Z,21.25
2022-12-31T04:22:27.840Z,21.24
2022-12-31T04:24:54.393Z,21.23
2022-12-31T04:27:20.942Z,21.23
2022-12-31T04:29:47.492Z,21.25
2022-12-31T04:32:13.969Z,21.23
2022-12-31T04:34:40.531Z,21.22
2022-12-31T04:37:07.056Z,21.21
2022-12-31T04:39:33.685Z,21.21
2022-12-31T04:42:00.242Z,21.19
2022-12-31T04:44:26.768Z,21.20
2022-12-31T04:46:53.404Z,21.20
2022-12-31T04:49:19.994Z,21.19
2022-12-31T04:51:46.627Z,21.19
2022-12-31T04:54:13.213Z,21.18
2022-12-31T04:56:39.813Z,21.19
2022-12-31T04:59:07.360Z,21.19
2022-12-31T05:01:34.030Z,21.21
2022-12-31T05:04:00.594Z,21.26
2022-12-31T05:06:27.256Z,21.31
2022-12-31T05:08:54.235Z,21.36
2022-12-31T05:11:20.709Z,21.39
2022-12-31T05:13:47.330Z,21.43
2022-12-31T05:16:13.940Z,21.46
2022-12-31T05:18:40.539Z,21.49
2022-12-31T05:21:07.147Z,21.53
2022-12-31T05:23:34.433Z,21.54
2022-12-31T05:26:01.777Z,21.56
2022-12-31T05:28:28.401Z,21.58
2022-12-31T05:30:55.388Z,21.59
2022-12-31T05:33:23.051Z,21.62
2022-12-31T05:35:49.644Z,21.63
2022-12-31T05:38:16.202Z,21.64
2022-12-31T05:40:42.666Z,21.63
2022-12-31T05:43:09.245Z,21.64
2022-12-31T05:45:35.787Z,21.65
2022-12-31T05:48:02.380Z,21.65
2022-12-31T05:50:28.955Z,21.66
2022-12-31T05:52:55.901Z,21.66
2022-12-31T05:55:22.580Z,21.67
2022-12-31T05:57:49.105Z,21.67
2022-12-31T06:00:16.263Z,21.67
2022-12-31T06:02:43.168Z,21.67
2022-12-31T06:05:10.363Z,21.67
2022-12-31T06:07:36.855Z,21.68
2022-12-31T06:10:03.806Z,21.66
2022-12-31T06:12:30.308Z,21.67
2022-12-31T06:14:56.813Z,21.68
2022-12-31T06:17:23.358Z,21.72
2022-12-31T06:19:49.839Z,21.72
2022-12-31T06:22:16.513Z,21.74
2022-12-31T06:24:43.071Z,21.74
2022-12-31T06:27:09.858Z,21.75
2022-12-31T06:29:36.411Z,21.76
2022-12-31T06:32:03.162Z,21.76
2022-12-31T06:34:29.604Z,21.78
2022-12-31T06:36:56.098Z,21.78
2022-12-31T06:39:22.661Z,21.77
2022-12-31T06:41:49.163Z,21.79
2022-12-31T06:44:15.726Z,21.79
2022-12-31T06:46:42.356Z,21.78
2022-12-31T06:49:08.937Z,21.77
2022-12-31T06:51:35.502Z,21.78
2022-12-31T06:54:02.105Z,21.80
2022-12-31T06:56:34.455Z,21.82
2022-12-31T06:59:03.070Z,21.85
2022-12-31T07:01:44.682Z,21.86
2022-12-31T07:04:54.644Z,21.87
2022-12-31T07:07:42.773Z,21.86
2022-12-31T07:10:43.500Z,21.86
2022-12-31T07:13:25.981Z,21.87
2022-12-31T07:16:20.554Z,21.89
2022-12-31T07:19:09.533Z,21.88
2022-12-31T07:21:38.303Z,21.89
2022-12-31T07:24:09.989Z,21.90
2022-12-31T07:26:56.923Z,21.90
2022-12-31T07:29:26.576Z,21.89
2022-12-31T07:32:08.933Z,21.89
2022-12-31T07:35:03.598Z,21.92
2022-12-31T07:37:48.676Z,21.96
2022-12-31T07:41:09.317Z,21.97
2022-12-31T07:43:57.082Z,21.97
2022-12-31T07:46:46.976Z,21.97
2022-12-31T07:49:14.125Z,21.98
2022-12-31T07:51:41.325Z,21.98
2022-12-31T07:54:13.667Z,21.98
2022-12-31T07:56:42.054Z,21.98
2022-12-31T07:59:31.203Z,21.98
2022-12-31T08:02:03.621Z,21.99
2022-12-31T08:04:54.408Z,21.98
2022-12-31T08:07:30.127Z,21.97
2022-12-31T08:09:59.739Z,21.95
2022-12-31T08:12:31.268Z,21.94
2022-12-31T08:14:58.442Z,21.98
2022-12-31T08:17:25.142Z,22.01
2022-12-31T08:19:51.878Z,22.03
2022-12-31T08:22:55.413Z,22.04
2022-12-31T08:25:33.041Z,22.05
2022-12-31T08:28:18.013Z,22.05
2022-12-31T08:31:01.852Z,22.05
2022-12-31T08:34:05.368Z,22.05
2022-12-31T08:36:44.645Z,22.06
2022-12-31T08:39:17.261Z,22.07
2022-12-31T08:41:49.656Z,22.06
2022-12-31T08:44:47.268Z,22.07
2022-12-31T08:47:42.640Z,22.06
2022-12-31T08:50:19.049Z,22.05
2022-12-31T08:52:46.387Z,22.05
2022-12-31T08:55:17.221Z,22.09
2022-12-31T08:57:46.730Z,22.10
2022-12-31T09:00:16.718Z,22.13
2022-12-31T09:03:15.543Z,22.14
2022-12-31T09:05:54.339Z,22.13
2022-12-31T09:08:29.345Z,22.14
2022-12-31T09:11:01.637Z,22.14
2022-12-31T09:13:52.516Z,22.14
2022-12-31T09:16:28.958Z,22.14
2022-12-31T09:18:55.495Z,22.16
2022-12-31T09:21:22.254Z,22.15
2022-12-31T09:23:49.364Z,22.16
2022-12-31T09:26:42.305Z,22.17
2022-12-31T09:29:42.397Z,22.15
2022-12-31T09:32:24.429Z,22.15
2022-12-31T09:35:15.180Z,22.16
2022-12-31T09:38:00.381Z,22.20
2022-12-31T09:40:32.772Z,22.21
2022-12-31T09:43:14.776Z,22.23
2022-12-31T09:46:06.131Z,22.22
2022-12-31T09:48:46.457Z,22.22
2022-12-31T09:51:25.793Z,22.22
2022-12-31T09:54:28.962Z,22.23
2022-12-31T09:57:29.506Z,22.24
2022-12-31T10:00:10.957Z,22.22
2022-12-31T10:03:16.112Z,22.25
2022-12-31T10:05:49.350Z,22.24
2022-12-31T10:08:18.755Z,22.26
2022-12-31T10:11:12.551Z,22.26
2022-12-31T10:14:03.361Z,22.26
2022-12-31T10:16:51.973Z,22.28
2022-12-31T10:19:32.610Z,22.28
2022-12-31T10:22:24.586Z,22.28
2022-12-31T10:25:39.217Z,22.28
2022-12-31T10:28:11.979Z,22.28
2022-12-31T10:30:43.960Z,22.28
2022-12-31T10:33:27.323Z,22.29
2022-12-31T10:36:07.646Z,22.28
2022-12-31T10:38:55.493Z,22.30
2022-12-31T10:41:28.079Z,22.33
2022-12-31T10:44:04.088Z,22.30
2022-12-31T10:47:18.191Z,22.27
2022-12-31T10:49:53.398Z,22.26
2022-12-31T10:52:28.867Z,22.25
2022-12-31T10:55:25.955Z,22.28
2022-12-31T10:58:05.025Z,22.32
2022-12-31T11:00:44.773Z,22.33
2022-12-31T11:03:36.318Z,22.35
2022-12-31T11:06:20.865Z,22.35
2022-12-31T11:09:06.492Z,22.35
2022-12-31T11:11:57.375Z,22.34
2022-12-31T11:14:57.799Z,22.37
2022-12-31T11:17:49.171Z,22.37
2022-12-31T11:20:39.218Z,22.37
2022-12-31T11:23:17.310Z,22.38
2022-12-31T11:25:58.661Z,22.38
2022-12-31T11:28:34.441Z,22.32
2022-12-31T11:31:22.477Z,22.31
2022-12-31T11:34:10.645Z,22.32
2022-12-31T11:37:16.202Z,22.37
2022-12-31T11:39:57.636Z,22.38
2022-12-31T11:42:48.896Z,22.39
2022-12-31T11:45:43.230Z,22.40
2022-12-31T11:48:37.342Z,22.39
2022-12-31T11:51:16.688Z,22.40
2022-12-31T11:54:01.298Z,22.40
2022-12-31T11:56:35.594Z,22.42
2022-12-31T11:59:07.714Z,22.42
2022-12-31T12:01:55.944Z,22.43
2022-12-31T12:04:22.511Z,22.43
2022-12-31T12:06:49.018Z,22.43
2022-12-31T12:09:26.723Z,22.43
2022-12-31T12:12:02.122Z,22.44
2022-12-31T12:14:40.962Z,22.43
2022-12-31T12:17:22.210Z,22.45
2022-12-31T12:19:55.161Z,22.45
2022-12-31T12:22:24.787Z,22.45
2022-12-31T12:25:06.606Z,22.46
2022-12-31T12:27:36.953Z,22.46
2022-12-31T12:30:19.929Z,22.46
2022-12-31T12:33:01.871Z,22.47
2022-12-31T12:35:35.930Z,22.46
2022-12-31T12:38:18.202Z,22.47
2022-12-31T12:40:57.489Z,22.47
2022-12-31T12:43:27.198Z,22.46
2022-12-31T12:45:58.801Z,22.47
2022-12-31T12:48:35.812Z,22.45
2022-12-31T12:51:18.055Z,22.46
2022-12-31T12:53:50.552Z,22.47
2022-12-31T12:56:26.095Z,22.47
2022-12-31T12:59:07.719Z,22.47
2022-12-31T13:01:46.670Z,22.47
2022-12-31T13:04:34.591Z,22.46
2022-12-31T13:07:13.919Z,22.43
2022-12-31T13:10:05.233Z,22.41
2022-12-31T13:13:13.675Z,22.41
2022-12-31T13:15:56.844Z,22.45
2022-12-31T13:18:39.269Z,22.49
2022-12-31T13:21:27.462Z,22.50
2022-12-31T13:24:03.315Z,22.52
2022-12-31T13:26:42.716Z,22.51
2022-12-31T13:29:18.203Z,22.51
2022-12-31T13:31:45.829Z,22.52
2022-12-31T13:34:25.897Z,22.52
2022-12-31T13:36:54.314Z,22.53
2022-12-31T13:39:25.434Z,22.51
2022-12-31T13:42:14.524Z,22.52
2022-12-31T13:44:51.748Z,22.49
2022-12-31T13:47:29.804Z,22.47
2022-12-31T13:50:01.000Z,22.45
2022-12-31T13:52:32.213Z,22.43
2022-12-31T13:55:29.848Z,22.47
2022-12-31T13:58:31.955Z,22.54
2022-12-31T14:01:22.940Z,22.55
2022-12-31T14:03:49.454Z,22.54
2022-12-31T14:06:17.638Z,22.54
2022-12-31T14:08:45.331Z,22.54
2022-12-31T14:11:21.598Z,22.57
2022-12-31T14:14:12.460Z,22.57
2022-12-31T14:17:11.480Z,22.58
2022-12-31T14:19:56.584Z,22.57
2022-12-31T14:23:09.647Z,22.51
2022-12-31T14:26:01.994Z,22.51
2022-12-31T14:28:47.095Z,22.49
2022-12-31T14:31:27.964Z,22.48
2022-12-31T14:34:03.923Z,22.51
2022-12-31T14:37:09.068Z,22.56
2022-12-31T14:39:59.544Z,22.58
2022-12-31T14:42:57.623Z,22.59
2022-12-31T14:45:45.999Z,22.60
2022-12-31T14:48:37.589Z,22.60
2022-12-31T14:51:05.502Z,22.59
2022-12-31T14:53:32.248Z,22.60
2022-12-31T14:56:02.959Z,22.60
2022-12-31T14:58:31.395Z,22.58
2022-12-31T15:01:18.971Z,22.59
2022-12-31T15:03:46.512Z,22.57
2022-12-31T15:06:39.795Z,22.56
2022-12-31T15:09:31.170Z,22.55
2022-12-31T15:12:07.606Z,22.56
2022-12-31T15:14:49.673Z,22.56
2022-12-31T15:17:48.198Z,22.60
2022-12-31T15:20:52.297Z,22.63
2022-12-31T15:23:51.644Z,22.63
2022-12-31T15:26:27.912Z,22.63
2022-12-31T15:29:01.232Z,22.63
2022-12-31T15:31:28.617Z,22.63
2022-12-31T15:33:58.132Z,22.64
2022-12-31T15:36:30.626Z,22.63
2022-12-31T15:39:25.734Z,22.61
2022-12-31T15:42:36.381Z,22.63
2022-12-31T15:44:50.963Z,22.62
2022-12-31T15:47:27.680Z,22.60
2022-12-31T15:49:55.487Z,22.59
2022-12-31T15:52:30.213Z,22.59
2022-12-31T15:54:57.827Z,22.62
2022-12-31T15:57:33.459Z,22.65
2022-12-31T16:00:05.761Z,22.66
2022-12-31T16:02:32.593Z,22.67
2022-12-31T16:04:59.229Z,22.67
2022-12-31T16:07:28.064Z,22.67
2022-12-31T16:09:58.103Z,22.69
2022-12-31T16:12:32.948Z,22.67
2022-12-31T16:15:01.564Z,22.68
2022-12-31T16:17:36.344Z,22.68
2022-12-31T16:20:23.289Z,22.67
2022-12-31T16:22:57.491Z,22.65
2022-12-31T16:25:33.125Z,22.65
2022-12-31T16:28:02.624Z,22.64
2022-12-31T16:30:32.116Z,22.63
2022-12-31T16:33:04.588Z,22.62
2022-12-31T16:35:34.156Z,22.66
2022-12-31T16:38:12.628Z,22.69
2022-12-31T16:40:41.316Z,22.69
2022-12-31T16:43:30.773Z,22.70
2022-12-31T16:46:06.294Z,22.70
2022-12-31T16:48:33.209Z,22.69
2022-12-31T16:50:59.803Z,22.71
2022-12-31T16:53:27.852Z,22.70
2022-12-31T16:56:04.291Z,22.69
2022-12-31T16:58:34.818Z,22.69
2022-12-31T17:01:11.394Z,22.69
2022-12-31T17:03:42.611Z,22.68
2022-12-31T17:06:09.630Z,22.67
2022-12-31T17:08:41.948Z,22.66
2022-12-31T17:11:23.995Z,22.66
2022-12-31T17:13:56.515Z,22.66
2022-12-31T17:16:23.627Z,22.68
2022-12-31T17:18:50.912Z,22.70
2022-12-31T17:21:17.802Z,22.69
2022-12-31T17:23:53.325Z,22.69
2022-12-31T17:26:27.137Z,22.71
2022-12-31T17:28:56.786Z,22.71
2022-12-31T17:31:36.359Z,22.70
2022-12-31T17:34:14.995Z,22.70
2022-12-31T17:36:57.010Z,22.69
2022-12-31T17:39:25.160Z,22.69
2022-12-31T17:41:55.104Z,22.69
2022-12-31T17:44:25.851Z,22.67
2022-12-31T17:46:53.279Z,22.66
2022-12-31T17:49:27.236Z,22.66
2022-12-31T17:51:53.870Z,22.65
2022-12-31T17:54:20.765Z,22.66
2022-12-31T17:56:47.523Z,22.68
2022-12-31T17:59:19.336Z,22.68
2022-12-31T18:01:45.968Z,22.70
2022-12-31T18:04:14.442Z,22.71
2022-12-31T18:06:41.489Z,22.71
2022-12-31T18:09:08.516Z,22.72
2022-12-31T18:11:37.773Z,22.70
2022-12-31T18:14:04.472Z,22.71
2022-12-31T18:16:31.071Z,22.69
2022-12-31T18:19:00.334Z,22.69
2022-12-31T18:21:33.090Z,22.68
2022-12-31T18:26:27.603Z,22.67
2022-12-31T18:28:54.375Z,22.66
2022-12-31T18:31:27.423Z,22.66
2022-12-31T18:33:56.989Z,22.67
2022-12-31T18:36:24.928Z,22.67
2022-12-31T18:38:51.733Z,22.70
2022-12-31T18:41:24.390Z,22.70
2022-12-31T18:43:51.485Z,22.68
2022-12-31T18:46:23.676Z,22.69
2022-12-31T18:48:50.245Z,22.67
2022-12-31T18:51:26.480Z,22.66
2022-12-31T18:53:57.753Z,22.67
2022-12-31T18:56:25.209Z,22.69
2022-12-31T18:58:52.108Z,22.68
2022-12-31T19:01:29.904Z,22.69
2022-12-31T19:03:58.661Z,22.70
2022-12-31T19:06:25.756Z,22.68
2022-12-31T19:08:52.468Z,22.68
2022-12-31T19:11:19.808Z,22.67
2022-12-31T19:13:46.697Z,22.67
2022-12-31T19:16:14.135Z,22.68
2022-12-31T19:18:41.695Z,22.68
2022-12-31T19:21:16.043Z,22.67
2022-12-31T19:23:42.741Z,22.66
2022-12-31T19:26:14.379Z,22.66
2022-12-31T19:28:40.928Z,22.65
2022-12-31T19:31:07.465Z,22.65
2022-12-31T19:33:34.030Z,22.65
2022-12-31T19:36:00.540Z,22.67
2022-12-31T19:38:29.067Z,22.67
2022-12-31T19:40:55.861Z,22.68
2022-12-31T19:43:23.794Z,22.68
2022-12-31T19:45:51.153Z,22.67
2022-12-31T19:48:28.755Z,22.67
2022-12-31T19:50:59.153Z,22.66
2022-12-31T19:53:27.189Z,22.66
2022-12-31T19:55:54.413Z,22.67
2022-12-31T19:58:26.105Z,22.67
2022-12-31T20:00:59.626Z,22.66
2022-12-31T20:03:28.605Z,22.64
2022-12-31T20:06:07.546Z,22.65
2022-12-31T20:08:35.655Z,22.63
2022-12-31T20:11:12.564Z,22.64
2022-12-31T20:13:40.348Z,22.65
2022-12-31T20:16:08.885Z,22.66
2022-12-31T20:18:39.269Z,22.67
2022-12-31T20:21:10.012Z,22.67
2022-12-31T20:23:36.379Z,22.66
2022-12-31T20:26:03.150Z,22.66
2022-12-31T20:28:29.949Z,22.64
2022-12-31T20:30:56.819Z,22.64
2022-12-31T20:33:23.715Z,22.63
2022-12-31T20:35:50.967Z,22.63
2022-12-31T20:38:17.540Z,22.62
2022-12-31T20:40:46.954Z,22.61
2022-12-31T20:43:14.140Z,22.61
2022-12-31T20:45:41.391Z,22.60
2022-12-31T20:48:08.227Z,22.61
2022-12-31T20:50:35.063Z,22.60
2022-12-31T20:53:02.001Z,22.58
2022-12-31T20:55:30.732Z,22.58
2022-12-31T20:57:57.285Z,22.57
2022-12-31T21:00:23.883Z,22.57
2022-12-31T21:03:00.265Z,22.53
2022-12-31T21:05:33.852Z,22.53
2022-12-31T21:08:00.513Z,22.56
2022-12-31T21:10:27.001Z,22.53
2022-12-31T21:12:53.536Z,22.49
2022-12-31T21:15:21.629Z,22.51
2022-12-31T21:17:48.296Z,22.50
2022-12-31T21:20:14.814Z,22.50
2022-12-31T21:22:41.339Z,22.49
2022-12-31T21:25:08.157Z,22.47
2022-12-31T21:27:35.784Z,22.47
2022-12-31T21:30:18.181Z,22.44
2022-12-31T21:32:45.781Z,22.45
2022-12-31T21:35:42.230Z,22.44
2022-12-31T21:38:06.961Z,22.44
2022-12-31T21:40:34.039Z,22.43
2022-12-31T21:43:00.616Z,22.42
2022-12-31T21:45:27.287Z,22.42
2022-12-31T21:48:12.381Z,22.41
2022-12-31T21:50:38.969Z,22.39
2022-12-31T21:53:05.432Z,22.38
2022-12-31T21:55:50.635Z,22.39
2022-12-31T21:58:26.368Z,22.38
2022-12-31T22:01:12.935Z,22.38
2022-12-31T22:03:39.817Z,22.39
2022-12-31T22:06:12.487Z,22.38
2022-12-31T22:08:45.158Z,22.36
2022-12-31T22:11:13.327Z,22.35
2022-12-31T22:13:40.676Z,22.35
2022-12-31T22:16:08.180Z,22.35
2022-12-31T22:18:38.733Z,22.34
2022-12-31T22:21:17.393Z,22.33
2022-12-31T22:23:45.792Z,22.32
2022-12-31T22:26:14.043Z,22.30
2022-12-31T22:28:42.278Z,22.31
2022-12-31T22:31:21.497Z,22.32
2022-12-31T22:33:48.471Z,22.30
2022-12-31T22:36:18.645Z,22.30
2022-12-31T22:38:45.667Z,22.30
2022-12-31T22:41:18.478Z,22.28
2022-12-31T22:43:51.212Z,22.29
2022-12-31T22:46:28.579Z,22.28
2022-12-31T22:48:58.370Z,22.27
2022-12-31T22:51:26.374Z,22.27
2022-12-31T22:53:55.958Z,22.26
2022-12-31T22:56:22.473Z,22.25
2022-12-31T22:58:49.315Z,22.23
2022-12-31T23:01:21.965Z,22.22
2022-12-31T23:03:50.521Z,22.23
2022-12-31T23:06:17.730Z,22.21
2022-12-31T23:09:07.237Z,22.23
2022-12-31T23:11:35.858Z,22.22
2022-12-31T23:14:21.244Z,22.20
2022-12-31T23:17:29.899Z,22.19
2022-12-31T23:20:11.379Z,22.20
2022-12-31T23:22:56.177Z,22.19
2022-12-31T23:25:22.971Z,22.18
2022-12-31T23:27:49.458Z,22.16
2022-12-31T23:30:16.032Z,22.15
2022-12-31T23:32:42.562Z,22.16
2022-12-31T23:35:10.057Z,22.15
2022-12-31T23:37:36.892Z,22.14
2022-12-31T23:40:03.932Z,22.13
2022-12-31T23:42:30.410Z,22.13
2022-12-31T23:44:56.927Z,22.13
2022-12-31T23:47:23.403Z,22.13
2022-12-31T23:49:49.979Z,22.13
2022-12-31T23:52:16.472Z,22.13
2022-12-31T23:54:43.051Z,22.12
2022-12-31T23:57:09.676Z,22.12
2022-12-31T23:59:36.337Z,22.11
